New Philadelphia, OH (44663)

10:17 PM EDT on March 26, 2017 (GMT -0400)
Steele Hill | | Change Station

Elev 942 ft 40.48 °N, 81.48 °W | Updated 1 second ago

Rain
Rain
56.3 °F
Feels Like 56.3 °F
N
1.0
Wind Variable Wind from ENE
Gusts 2.0 mph

Today
High -- | Low -- °F
--% Chance of Precip.
Yesterday
High -- | Low -- °F
Precip. -- in
Pressure 29.97 in
Visibility 10.0 miles
Clouds Scattered Clouds 1600 ft
Overcast 8500 ft
Dew Point 53 °F
Humidity 90%
Rainfall 0.05 in
Snow Depth Not available.
7:18 AM 7:44 PM
Waning Crescent, 1% visible
METAR KPHD 270153Z AUTO 00000KT 10SM SCT016 OVC085 14/11 A2998 RMK AO2 SLP149 T01390111
Pressure 29.97 in
Visibility 10.0 miles
Clouds Scattered Clouds 1600 ft
Overcast 8500 ft
Dew Point 53 °F
Humidity 90%
Rainfall 0.05 in
Snow Depth Not available.
7:18 AM 7:44 PM
Waning Crescent, 1% visible
METAR KPHD 270153Z AUTO 00000KT 10SM SCT016 OVC085 14/11 A2998 RMK AO2 SLP149 T01390111

Get Severe Weather Alerts

Thanks for signing up!

Be on the lookout for a verification email in your inbox.

You'll start receiving the daily forecast at 8 AM.

×

10-Day Weather Forecast

Almanac

Astronomy

Mar. 26, 2017 Rise Set
Actual Time
Civil Twilight
Nautical Twilight
Astronomical Twilight
Moon
Length of Visible Light
Length of Day
Tomorrow will be .
, % of the Moon is Illuminated

Today's Extremes

State Highs State Lows

Community

WunderPhotos

Upload Photos

1,962,540 photos uploaded!

WunderBlog® & News

Nearby

Air Quality

  Air Quality AQ Index Pollutant
Not available.

Snow Depth

Station Depth Elevation

Earthquake Activity

City Distance Mag. Time & Date
Minimum magnitude displayed is 2.5.

Earthquake Activity

City Distance Mag. Time & Date
Minimum magnitude displayed is 2.5.

Coastal Water Temperatures

Place Temperature

Stations

Nearby Weather Stations

Station Location Temp. Windchill Dew Point Humidity Wind Precip. Elev Updated Type
                   

Watches & Warnings

There are currently no watches in effect.